createdAt,value
2018-04-22T00:01:08.262Z,21.10
2018-04-22T00:03:34.880Z,21.55
2018-04-22T00:06:01.533Z,21.25
2018-04-22T00:08:28.158Z,21.75
2018-04-22T00:10:54.808Z,23.05
2018-04-22T00:13:21.448Z,23.52
2018-04-22T00:15:48.360Z,22.45
2018-04-22T00:18:15.056Z,22.80
2018-04-22T00:20:41.827Z,22.05
2018-04-22T00:23:08.443Z,21.08
2018-04-22T00:25:35.086Z,23.50
2018-04-22T00:28:01.726Z,21.27
2018-04-22T00:30:28.368Z,22.45
2018-04-22T00:32:54.985Z,25.10
2018-04-22T00:35:21.650Z,22.73
2018-04-22T00:37:48.274Z,22.02
2018-04-22T00:40:14.909Z,21.27
2018-04-22T00:42:41.539Z,21.87
2018-04-22T00:45:08.263Z,22.10
2018-04-22T00:47:34.910Z,21.40
2018-04-22T00:50:01.527Z,21.95
2018-04-22T00:52:28.303Z,22.00
2018-04-22T00:54:54.921Z,22.70
2018-04-22T00:57:21.567Z,22.90
2018-04-22T00:59:48.264Z,22.40
2018-04-22T01:02:14.898Z,22.70
2018-04-22T01:04:41.505Z,22.83
2018-04-22T01:07:08.158Z,21.35
2018-04-22T01:09:34.786Z,22.37
2018-04-22T01:12:01.445Z,23.15
2018-04-22T01:14:28.049Z,21.48
2018-04-22T01:16:54.724Z,24.00
2018-04-22T01:19:21.350Z,24.35
2018-04-22T01:21:47.993Z,22.30
2018-04-22T01:24:14.630Z,22.40
2018-04-22T01:26:41.295Z,22.73
2018-04-22T01:29:07.921Z,23.52
2018-04-22T01:31:34.566Z,23.02
2018-04-22T01:34:01.202Z,21.65
2018-04-22T01:36:27.837Z,24.75
2018-04-22T01:38:54.477Z,21.52
2018-04-22T01:41:21.179Z,21.62
2018-04-22T01:43:47.813Z,23.17
2018-04-22T01:46:14.438Z,24.67
2018-04-22T01:48:41.098Z,22.70
2018-04-22T01:51:07.701Z,23.65
2018-04-22T01:53:34.330Z,24.05
2018-04-22T01:56:00.983Z,25.60
2018-04-22T01:58:27.590Z,22.73
2018-04-22T02:00:54.232Z,21.37
2018-04-22T02:03:20.864Z,22.85
2018-04-22T02:05:47.566Z,22.60
2018-04-22T02:08:14.174Z,24.02
2018-04-22T02:10:40.817Z,24.00
2018-04-22T02:13:07.447Z,23.85
2018-04-22T02:15:34.090Z,24.23
2018-04-22T02:18:00.702Z,26.37
2018-04-22T02:20:27.330Z,26.80
2018-04-22T02:22:54.070Z,24.85
2018-04-22T02:25:20.720Z,25.60
2018-04-22T02:27:47.345Z,23.73
2018-04-22T02:30:14.039Z,24.52
2018-04-22T02:32:40.673Z,25.23
2018-04-22T02:35:07.314Z,25.45
2018-04-22T02:37:33.934Z,22.95
2018-04-22T02:40:00.586Z,21.60
2018-04-22T02:42:27.211Z,24.42
2018-04-22T02:44:53.851Z,24.83
2018-04-22T02:47:20.570Z,21.90
2018-04-22T02:49:47.183Z,24.25
2018-04-22T02:52:13.849Z,22.05
2018-04-22T02:54:40.479Z,22.60
2018-04-22T02:57:07.131Z,21.10
2018-04-22T02:59:34.347Z,20.45
2018-04-22T03:02:01.011Z,21.27
2018-04-22T03:04:27.630Z,21.17
2018-04-22T03:06:54.257Z,22.65
2018-04-22T03:09:20.898Z,24.60
2018-04-22T03:11:47.544Z,22.90
2018-04-22T03:14:14.787Z,22.35
2018-04-22T03:16:41.410Z,21.02
2018-04-22T03:19:08.073Z,21.23
2018-04-22T03:21:34.699Z,23.17
2018-04-22T03:24:01.349Z,25.58
2018-04-22T03:26:27.959Z,20.25
2018-04-22T03:28:54.627Z,22.50
2018-04-22T03:31:21.254Z,21.60
2018-04-22T03:33:47.910Z,22.25
2018-04-22T03:36:14.529Z,22.40
2018-04-22T03:38:41.147Z,21.62
2018-04-22T03:41:07.781Z,25.10
2018-04-22T03:43:34.406Z,21.48
2018-04-22T03:46:01.017Z,21.83
2018-04-22T03:48:27.682Z,21.33
2018-04-22T03:50:54.506Z,20.85
2018-04-22T03:53:21.123Z,22.17
2018-04-22T03:55:47.758Z,20.20
2018-04-22T03:58:14.388Z,21.10
2018-04-22T04:00:41.043Z,21.62
2018-04-22T04:03:07.673Z,20.90
2018-04-22T04:05:34.315Z,20.35
2018-04-22T04:08:00.933Z,21.60
2018-04-22T04:10:27.566Z,24.48
2018-04-22T04:12:54.203Z,21.12
2018-04-22T04:15:20.882Z,21.98
2018-04-22T04:18:02.394Z,20.45
2018-04-22T04:20:34.835Z,22.25
2018-04-22T04:23:01.463Z,21.65
2018-04-22T04:25:37.775Z,20.10
2018-04-22T04:28:04.390Z,20.77
2018-04-22T04:30:31.012Z,21.35
2018-04-22T04:32:57.638Z,20.80
2018-04-22T04:35:24.282Z,20.17
2018-04-22T04:37:50.926Z,20.70
2018-04-22T04:40:17.553Z,22.15
2018-04-22T04:42:44.163Z,21.40
2018-04-22T04:45:10.797Z,22.33
2018-04-22T04:47:37.410Z,21.50
2018-04-22T04:50:04.075Z,21.58
2018-04-22T04:52:30.693Z,22.13
2018-04-22T04:54:57.295Z,20.90
2018-04-22T04:57:23.961Z,22.40
2018-04-22T04:59:50.587Z,20.90
2018-04-22T05:02:17.223Z,23.02
2018-04-22T05:04:43.943Z,22.40
2018-04-22T05:07:10.597Z,22.17
2018-04-22T05:09:37.235Z,21.00
2018-04-22T05:12:03.885Z,23.90
2018-04-22T05:14:30.519Z,22.30
2018-04-22T05:16:57.843Z,20.85
2018-04-22T05:19:24.418Z,21.40
2018-04-22T05:21:51.073Z,21.12
2018-04-22T05:24:17.685Z,22.83
2018-04-22T05:26:44.321Z,23.62
2018-04-22T05:29:10.938Z,21.80
2018-04-22T05:31:37.575Z,21.25
2018-04-22T05:34:04.221Z,22.55
2018-04-22T05:36:30.872Z,20.23
2018-04-22T05:38:57.507Z,21.80
2018-04-22T05:41:24.117Z,22.10
2018-04-22T05:43:50.782Z,21.52
2018-04-22T05:46:17.569Z,24.27
2018-04-22T05:48:44.224Z,20.33
2018-04-22T05:51:10.858Z,21.73
2018-04-22T05:53:37.483Z,22.60
2018-04-22T05:56:04.134Z,21.80
2018-04-22T05:58:30.765Z,23.23
2018-04-22T06:00:57.418Z,23.40
2018-04-22T06:03:24.051Z,23.73
2018-04-22T06:05:50.695Z,21.40
2018-04-22T06:08:18.128Z,20.77
2018-04-22T06:10:44.770Z,20.30
2018-04-22T06:13:11.429Z,22.05
2018-04-22T06:15:38.035Z,20.25
2018-04-22T06:18:05.397Z,23.27
2018-04-22T06:20:32.918Z,21.92
2018-04-22T06:22:59.597Z,20.90
2018-04-22T06:25:26.265Z,20.58
2018-04-22T06:27:52.896Z,21.98
2018-04-22T06:30:19.554Z,25.52
2018-04-22T06:32:46.166Z,21.17
2018-04-22T06:35:12.832Z,21.52
2018-04-22T06:37:39.454Z,21.52
2018-04-22T06:40:06.110Z,24.83
2018-04-22T06:42:32.719Z,23.60
2018-04-22T06:44:59.360Z,23.50
2018-04-22T06:47:25.991Z,23.57
2018-04-22T06:49:52.618Z,24.40
2018-04-22T06:52:19.261Z,23.90
2018-04-22T06:54:45.899Z,23.27
2018-04-22T06:57:12.550Z,25.47
2018-04-22T06:59:39.182Z,25.70
2018-04-22T07:02:06.450Z,24.90
2018-04-22T07:04:33.800Z,27.03
2018-04-22T07:07:00.552Z,25.70
2018-04-22T07:09:27.217Z,25.63
2018-04-22T07:11:54.011Z,27.50
2018-04-22T07:14:20.907Z,25.50
2018-04-22T07:16:47.663Z,26.17
2018-04-22T07:19:14.492Z,28.20
2018-04-22T07:21:41.264Z,31.03
2018-04-22T07:24:08.067Z,24.52
2018-04-22T07:26:34.892Z,26.80
2018-04-22T07:29:01.685Z,26.63
2018-04-22T07:31:28.364Z,27.60
2018-04-22T07:33:55.129Z,27.67
2018-04-22T07:36:22.018Z,27.80
2018-04-22T07:38:48.719Z,25.70
2018-04-22T07:41:15.444Z,27.37
2018-04-22T07:43:42.131Z,26.87
2018-04-22T07:46:08.965Z,26.60
2018-04-22T07:48:35.742Z,29.23
2018-04-22T07:51:02.486Z,28.20
2018-04-22T07:53:29.269Z,28.90
2018-04-22T07:55:56.018Z,29.20
2018-04-22T07:58:22.706Z,28.50
2018-04-22T08:00:49.539Z,26.60
2018-04-22T08:03:16.274Z,32.97
2018-04-22T08:05:42.989Z,30.03
2018-04-22T08:08:09.910Z,30.50
2018-04-22T08:10:36.642Z,30.13
2018-04-22T08:13:03.377Z,29.70
2018-04-22T08:15:30.211Z,30.70
2018-04-22T08:17:57.064Z,29.30
2018-04-22T08:20:24.081Z,32.10
2018-04-22T08:22:51.226Z,31.67
2018-04-22T08:25:17.957Z,32.23
2018-04-22T08:27:44.721Z,29.67
2018-04-22T08:30:11.733Z,31.07
2018-04-22T08:32:38.562Z,30.30
2018-04-22T08:35:05.360Z,30.80
2018-04-22T08:37:32.122Z,30.80
2018-04-22T08:39:58.999Z,32.50
2018-04-22T08:42:26.189Z,32.57
2018-04-22T08:44:53.010Z,33.57
2018-04-22T08:47:19.815Z,34.30
2018-04-22T08:49:46.569Z,30.80
2018-04-22T08:52:13.260Z,30.90
2018-04-22T08:54:41.136Z,30.60
2018-04-22T08:57:07.874Z,33.10
2018-04-22T08:59:34.634Z,29.23
2018-04-22T09:02:01.574Z,28.43
2018-04-22T09:04:28.301Z,31.70
2018-04-22T09:06:55.081Z,29.20
2018-04-22T09:09:21.945Z,33.43
2018-04-22T09:11:48.790Z,30.30
2018-04-22T09:14:15.521Z,31.93
2018-04-22T09:16:42.622Z,30.73
2018-04-22T09:19:09.315Z,29.37
2018-04-22T09:21:36.129Z,33.77
2018-04-22T09:24:02.932Z,33.70
2018-04-22T09:26:29.734Z,29.27
2018-04-22T09:28:56.758Z,30.30
2018-04-22T09:31:23.630Z,29.83
2018-04-22T09:33:50.399Z,32.33
2018-04-22T09:36:18.099Z,29.40
2018-04-22T09:38:45.081Z,31.43
2018-04-22T09:41:11.923Z,25.90
2018-04-22T09:43:38.685Z,31.33
2018-04-22T09:46:05.466Z,31.03
2018-04-22T09:48:32.327Z,30.90
2018-04-22T09:50:59.077Z,28.70
2018-04-22T09:53:26.062Z,28.97
2018-04-22T09:55:52.781Z,28.60
2018-04-22T09:58:19.661Z,28.40
2018-04-22T10:00:47.308Z,29.87
2018-04-22T10:03:14.170Z,27.07
2018-04-22T10:05:46.777Z,29.83
2018-04-22T10:08:14.452Z,28.47
2018-04-22T10:10:41.411Z,28.53
2018-04-22T10:13:08.248Z,26.13
2018-04-22T10:15:51.159Z,27.47
2018-04-22T10:18:21.649Z,29.67
2018-04-22T10:20:48.937Z,30.47
2018-04-22T10:23:23.180Z,28.13
2018-04-22T10:25:52.185Z,25.47
2018-04-22T10:28:21.120Z,27.20
2018-04-22T10:30:48.417Z,25.13
2018-04-22T10:33:16.237Z,26.70
2018-04-22T10:35:43.489Z,25.07
2018-04-22T10:38:10.699Z,24.37
2018-04-22T10:40:37.888Z,28.53
2018-04-22T10:43:05.601Z,25.40
2018-04-22T10:45:32.561Z,25.67
2018-04-22T10:47:59.392Z,25.37
2018-04-22T10:50:28.343Z,25.47
2018-04-22T10:52:55.230Z,23.63
2018-04-22T10:55:22.079Z,25.07
2018-04-22T10:57:48.815Z,27.90
2018-04-22T11:00:15.658Z,23.70
2018-04-22T11:02:42.536Z,26.33
2018-04-22T11:05:09.255Z,27.00
2018-04-22T11:07:36.027Z,23.53
2018-04-22T11:10:02.898Z,23.80
2018-04-22T11:12:30.637Z,22.40
2018-04-22T11:14:57.544Z,26.47
2018-04-22T11:17:24.441Z,23.77
2018-04-22T11:19:51.095Z,22.23
2018-04-22T11:22:17.859Z,22.17
2018-04-22T11:24:44.883Z,24.83
2018-04-22T11:27:11.815Z,23.73
2018-04-22T11:29:38.747Z,22.77
2018-04-22T11:32:05.583Z,22.93
2018-04-22T11:34:32.425Z,22.97
2018-04-22T11:36:59.270Z,23.60
2018-04-22T11:39:26.080Z,22.87
2018-04-22T11:41:52.891Z,25.20
2018-04-22T11:44:19.710Z,27.73
2018-04-22T11:46:46.749Z,22.77
2018-04-22T11:49:13.663Z,21.30
2018-04-22T11:51:40.917Z,23.40
2018-04-22T11:54:07.662Z,25.87
2018-04-22T11:56:34.436Z,25.80
2018-04-22T11:59:01.405Z,22.73
2018-04-22T12:01:28.221Z,21.43
2018-04-22T12:03:55.101Z,21.40
2018-04-22T12:06:21.961Z,22.10
2018-04-22T12:08:48.805Z,23.10
2018-04-22T12:11:15.588Z,22.87
2018-04-22T12:13:42.387Z,23.67
2018-04-22T12:16:09.149Z,25.23
2018-04-22T12:18:36.431Z,26.43
2018-04-22T12:21:03.147Z,20.90
2018-04-22T12:23:29.910Z,19.93
2018-04-22T12:25:56.709Z,22.53
2018-04-22T12:28:23.442Z,21.50
2018-04-22T12:30:50.895Z,25.13
2018-04-22T12:33:17.583Z,21.47
2018-04-22T12:35:44.993Z,24.20
2018-04-22T12:38:11.682Z,24.53
2018-04-22T12:40:38.368Z,25.20
2018-04-22T12:43:05.173Z,20.90
2018-04-22T12:45:31.974Z,24.10
2018-04-22T12:47:58.670Z,21.20
2018-04-22T12:50:25.501Z,21.23
2018-04-22T12:52:52.133Z,23.70
2018-04-22T12:55:18.929Z,21.50
2018-04-22T12:57:45.585Z,24.30
2018-04-22T13:00:12.227Z,19.57
2018-04-22T13:02:38.924Z,21.73
2018-04-22T13:05:05.504Z,19.73
2018-04-22T13:07:32.143Z,21.23
2018-04-22T13:09:58.879Z,23.00
2018-04-22T13:12:25.536Z,21.23
2018-04-22T13:14:52.171Z,23.40
2018-04-22T13:17:18.787Z,21.20
2018-04-22T13:19:45.540Z,22.20
2018-04-22T13:22:12.196Z,25.17
2018-04-22T13:24:38.936Z,22.20
2018-04-22T13:27:06.057Z,21.50
2018-04-22T13:29:32.719Z,20.87
2018-04-22T13:31:59.362Z,20.10
2018-04-22T13:34:25.989Z,20.00
2018-04-22T13:36:52.621Z,26.43
2018-04-22T13:39:19.288Z,22.30
2018-04-22T13:41:45.914Z,21.43
2018-04-22T13:44:12.571Z,20.13
2018-04-22T13:46:39.194Z,19.80
2018-04-22T13:49:05.949Z,21.23
2018-04-22T13:51:32.551Z,22.30
2018-04-22T13:53:59.189Z,21.30
2018-04-22T13:56:25.916Z,22.73
2018-04-22T13:58:52.559Z,22.80
2018-04-22T14:01:19.163Z,20.70
2018-04-22T14:03:45.827Z,24.17
2018-04-22T14:06:12.467Z,20.53
2018-04-22T14:08:39.076Z,23.93
2018-04-22T14:11:05.711Z,25.00
2018-04-22T14:13:32.317Z,23.50
2018-04-22T14:15:58.948Z,24.80
2018-04-22T14:18:25.560Z,27.13
2018-04-22T14:20:52.189Z,21.90
2018-04-22T14:23:18.808Z,21.97
2018-04-22T14:25:45.437Z,22.63
2018-04-22T14:28:12.055Z,25.63
2018-04-22T14:30:38.685Z,23.47
2018-04-22T14:33:05.290Z,23.67
2018-04-22T14:35:31.922Z,22.30
2018-04-22T14:37:58.558Z,22.20
2018-04-22T14:40:27.436Z,23.00
2018-04-22T14:42:54.069Z,24.13
2018-04-22T14:45:26.985Z,20.27
2018-04-22T14:47:53.633Z,21.00
2018-04-22T14:50:20.252Z,24.20
2018-04-22T14:52:46.902Z,25.17
2018-04-22T14:55:13.529Z,23.37
2018-04-22T14:57:40.160Z,23.47
2018-04-22T15:00:06.794Z,23.23
2018-04-22T15:02:33.448Z,23.23
2018-04-22T15:05:00.064Z,27.53
2018-04-22T15:07:26.747Z,26.23
2018-04-22T15:09:53.364Z,22.43
2018-04-22T15:12:20.008Z,22.83
2018-04-22T15:14:46.644Z,26.50
2018-04-22T15:17:13.267Z,22.30
2018-04-22T15:19:40.018Z,76.70
2018-04-22T15:22:06.652Z,35.27
2018-04-22T15:24:33.659Z,28.40
2018-04-22T15:27:00.327Z,21.40
2018-04-22T15:29:27.092Z,27.40
2018-04-22T15:31:53.757Z,22.80
2018-04-22T15:34:20.379Z,21.30
2018-04-22T15:36:47.016Z,23.00
2018-04-22T15:39:13.685Z,20.70
2018-04-22T15:41:40.333Z,22.40
2018-04-22T15:44:10.347Z,22.27
2018-04-22T15:46:37.095Z,21.60
2018-04-22T15:49:04.889Z,25.67
2018-04-22T15:51:31.729Z,21.83
2018-04-22T15:53:58.425Z,18.60
2018-04-22T15:56:25.133Z,19.10
2018-04-22T15:58:59.040Z,20.00
2018-04-22T16:01:31.547Z,21.70
2018-04-22T16:03:58.542Z,23.10
2018-04-22T16:06:25.402Z,19.70
2018-04-22T16:08:52.074Z,21.40
2018-04-22T16:11:18.714Z,21.50
2018-04-22T16:13:45.493Z,19.20
2018-04-22T16:16:12.132Z,19.03
2018-04-22T16:18:38.747Z,19.20
2018-04-22T16:21:05.384Z,18.43
2018-04-22T16:23:32.098Z,19.03
2018-04-22T16:25:58.809Z,18.40
2018-04-22T16:28:25.428Z,18.43
2018-04-22T16:30:52.073Z,18.40
2018-04-22T16:33:18.694Z,19.33
2018-04-22T16:35:45.338Z,20.00
2018-04-22T16:38:11.979Z,20.90
2018-04-22T16:40:38.599Z,20.87
2018-04-22T16:43:05.227Z,19.60
2018-04-22T16:45:32.483Z,18.50
2018-04-22T16:47:59.126Z,21.57
2018-04-22T16:50:25.760Z,19.43
2018-04-22T16:52:52.421Z,19.10
2018-04-22T16:55:19.065Z,19.30
2018-04-22T16:57:45.704Z,20.30
2018-04-22T17:00:12.335Z,18.50
2018-04-22T17:02:39.367Z,20.10
2018-04-22T17:05:06.011Z,19.33
2018-04-22T17:07:33.509Z,21.20
2018-04-22T17:10:00.167Z,18.97
2018-04-22T17:12:26.817Z,19.03
2018-04-22T17:14:53.445Z,19.13
2018-04-22T17:17:20.088Z,19.20
2018-04-22T17:19:47.271Z,19.90
2018-04-22T17:22:13.936Z,21.03
2018-04-22T17:24:40.747Z,20.73
2018-04-22T17:27:07.417Z,21.60
2018-04-22T17:29:35.159Z,23.10
2018-04-22T17:32:02.040Z,20.70
2018-04-22T17:34:29.534Z,21.30
2018-04-22T17:36:56.537Z,21.73
2018-04-22T17:49:08.289Z,21.23
2018-04-22T17:51:35.575Z,21.60
2018-04-22T17:54:06.477Z,21.73
2018-04-22T17:56:33.722Z,19.90
2018-04-22T17:59:00.523Z,21.40
2018-04-22T18:01:28.497Z,20.00
2018-04-22T18:03:55.897Z,23.30
2018-04-22T18:06:22.604Z,22.05
2018-04-22T18:08:49.244Z,21.73
2018-04-22T18:11:16.590Z,20.73
2018-04-22T18:13:43.252Z,19.12
2018-04-22T18:16:10.996Z,19.97
2018-04-22T18:18:37.736Z,18.77
2018-04-22T18:21:04.461Z,19.67
2018-04-22T18:23:31.895Z,21.50
2018-04-22T18:25:58.813Z,20.50
2018-04-22T18:28:25.849Z,19.60
2018-04-22T18:30:52.497Z,19.43
2018-04-22T18:33:19.196Z,19.47
2018-04-22T18:35:45.982Z,20.37
2018-04-22T18:38:12.725Z,21.17
2018-04-22T18:40:39.555Z,20.20
2018-04-22T18:43:06.232Z,20.03
2018-04-22T18:45:32.980Z,19.50
2018-04-22T18:48:00.277Z,19.10
2018-04-22T18:50:27.071Z,17.87
2018-04-22T18:52:53.807Z,21.07
2018-04-22T18:55:20.456Z,18.50
2018-04-22T18:57:47.697Z,20.00
2018-04-22T19:00:14.422Z,21.53
2018-04-22T19:02:41.722Z,19.80
2018-04-22T19:05:09.200Z,18.65
2018-04-22T19:07:35.928Z,18.53
2018-04-22T19:10:02.744Z,19.35
2018-04-22T19:12:29.731Z,18.50
2018-04-22T19:14:56.511Z,21.87
2018-04-22T19:17:23.208Z,22.17
2018-04-22T19:19:49.912Z,18.90
2018-04-22T19:22:20.488Z,19.73
2018-04-22T19:24:47.181Z,19.93
2018-04-22T19:27:13.872Z,19.80
2018-04-22T19:29:45.228Z,19.27
2018-04-22T19:32:15.641Z,18.97
2018-04-22T19:34:42.396Z,21.23
2018-04-22T19:37:09.788Z,22.77
2018-04-22T19:39:37.747Z,20.00
2018-04-22T19:42:04.401Z,26.23
2018-04-22T19:44:31.151Z,19.97
2018-04-22T19:46:58.147Z,20.07
2018-04-22T19:49:24.853Z,19.83
2018-04-22T19:51:59.688Z,20.15
2018-04-22T19:54:30.617Z,20.55
2018-04-22T19:56:57.478Z,22.23
2018-04-22T19:59:24.170Z,26.23
2018-04-22T20:01:52.425Z,19.87
2018-04-22T20:04:19.124Z,20.73
2018-04-22T20:06:45.847Z,21.08
2018-04-22T20:09:13.450Z,19.63
2018-04-22T20:11:40.615Z,19.25
2018-04-22T20:14:07.619Z,21.15
2018-04-22T20:16:34.356Z,19.40
2018-04-22T20:19:01.520Z,22.60
2018-04-22T20:21:28.178Z,22.73
2018-04-22T20:23:59.105Z,23.65
2018-04-22T20:26:25.837Z,24.00
2018-04-22T20:28:52.475Z,21.62
2018-04-22T20:31:19.150Z,23.60
2018-04-22T20:33:45.871Z,21.77
2018-04-22T20:36:12.492Z,22.48
2018-04-22T20:38:39.356Z,23.60
2018-04-22T20:41:08.042Z,25.20
2018-04-22T20:43:34.713Z,21.40
2018-04-22T20:46:01.374Z,21.48
2018-04-22T20:48:28.038Z,22.75
2018-04-22T20:50:54.783Z,21.50
2018-04-22T20:53:21.526Z,22.65
2018-04-22T20:55:52.287Z,23.10
2018-04-22T20:58:18.991Z,22.03
2018-04-22T21:00:45.712Z,22.83
2018-04-22T21:03:12.336Z,22.42
2018-04-22T21:05:39.007Z,22.48
2018-04-22T21:08:05.625Z,23.87
2018-04-22T21:10:32.360Z,23.42
2018-04-22T21:12:59.037Z,22.35
2018-04-22T21:15:25.730Z,23.35
2018-04-22T21:17:52.685Z,24.42
2018-04-22T21:20:19.494Z,22.58
2018-04-22T21:22:46.116Z,26.77
2018-04-22T21:25:12.778Z,22.62
2018-04-22T21:27:39.418Z,25.20
2018-04-22T21:30:06.114Z,23.50
2018-04-22T21:32:37.143Z,21.70
2018-04-22T21:35:03.903Z,26.12
2018-04-22T21:37:30.582Z,23.60
2018-04-22T21:39:57.276Z,23.80
2018-04-22T21:42:24.499Z,23.80
2018-04-22T21:44:51.163Z,23.62
2018-04-22T21:47:17.823Z,21.67
2018-04-22T21:49:48.354Z,21.70
2018-04-22T21:52:15.022Z,23.52
2018-04-22T21:54:41.783Z,23.12
2018-04-22T21:57:08.442Z,23.60
2018-04-22T21:59:35.718Z,25.48
2018-04-22T22:02:02.393Z,23.38
2018-04-22T22:04:29.148Z,28.27
2018-04-22T22:06:56.642Z,25.08
2018-04-22T22:09:27.134Z,26.37
2018-04-22T22:11:53.887Z,25.67
2018-04-22T22:14:21.691Z,25.05
2018-04-22T22:16:48.827Z,24.92
2018-04-22T22:19:15.595Z,25.83
2018-04-22T22:21:42.480Z,26.55
2018-04-22T22:24:09.155Z,25.27
2018-04-22T22:26:35.809Z,24.23
2018-04-22T22:29:02.442Z,24.73
2018-04-22T22:31:29.126Z,26.25
2018-04-22T22:33:56.066Z,26.45
2018-04-22T22:36:23.662Z,25.90
2018-04-22T22:38:50.295Z,26.60
2018-04-22T22:41:17.182Z,29.20
2018-04-22T22:43:43.829Z,28.23
2018-04-22T22:46:10.484Z,25.05
2018-04-22T22:48:37.160Z,26.52
2018-04-22T22:51:03.846Z,30.15
2018-04-22T22:53:30.530Z,27.70
2018-04-22T22:55:57.967Z,28.70
2018-04-22T22:58:25.747Z,27.35
2018-04-22T23:00:52.856Z,28.87
2018-04-22T23:03:23.648Z,27.90
2018-04-22T23:05:54.397Z,30.02
2018-04-22T23:08:21.923Z,31.20
2018-04-22T23:10:49.425Z,28.95
2018-04-22T23:13:16.327Z,30.25
2018-04-22T23:15:49.137Z,28.58
2018-04-22T23:18:19.551Z,30.12
2018-04-22T23:20:47.926Z,30.80
2018-04-22T23:23:15.320Z,31.15
2018-04-22T23:25:46.689Z,32.30
2018-04-22T23:28:13.320Z,32.65
2018-04-22T23:30:39.986Z,33.55
2018-04-22T23:33:06.695Z,32.97
2018-04-22T23:35:33.405Z,33.85
2018-04-22T23:38:00.046Z,33.58
2018-04-22T23:40:27.107Z,33.58
2018-04-22T23:42:54.268Z,32.92
2018-04-22T23:45:21.421Z,35.15
2018-04-22T23:47:48.373Z,33.65
2018-04-22T23:50:15.002Z,31.50
2018-04-22T23:52:41.690Z,34.83
2018-04-22T23:55:08.998Z,34.28
2018-04-22T23:57:35.654Z,33.63
